createdAt,value
2023-02-19T00:01:37.262Z,97221.69
2023-02-19T00:03:41.925Z,97220.91
2023-02-19T00:05:46.364Z,97229.66
2023-02-19T00:07:53.600Z,97226.69
2023-02-19T00:09:58.054Z,97218.41
2023-02-19T00:12:03.027Z,97212.81
2023-02-19T00:14:08.186Z,97211.72
2023-02-19T00:16:15.165Z,97203.75
2023-02-19T00:18:19.872Z,97208.28
2023-02-19T00:20:24.449Z,97201.09
2023-02-19T00:22:29.409Z,97191.53
2023-02-19T00:24:36.520Z,97198.72
2023-02-19T00:26:41.670Z,97190.75
2023-02-19T00:28:46.164Z,97191.63
2023-02-19T00:30:50.671Z,97194.09
2023-02-19T00:32:55.574Z,97187.50
2023-02-19T00:35:00.106Z,97191.25
2023-02-19T00:37:04.837Z,97189.66
2023-02-19T00:39:10.338Z,97185.72
2023-02-19T00:41:24.285Z,97187.09
2023-02-19T00:43:28.962Z,97187.88
2023-02-19T00:45:35.101Z,97185.81
2023-02-19T00:47:40.008Z,97187.69
2023-02-19T00:49:45.158Z,97182.97
2023-02-19T00:51:49.795Z,97182.47
2023-02-19T00:53:54.597Z,97172.41
2023-02-19T00:55:59.078Z,97169.75
2023-02-19T00:58:06.506Z,97168.47
2023-02-19T01:00:12.126Z,97176.22
2023-02-19T01:02:17.101Z,97173.56
2023-02-19T01:04:21.572Z,97170.41
2023-02-19T01:06:26.260Z,97172.56
2023-02-19T01:08:32.143Z,97170.97
2023-02-19T01:10:38.477Z,97166.78
2023-02-19T01:12:43.176Z,97167.53
2023-02-19T01:14:50.344Z,97160.06
2023-02-19T01:16:54.760Z,97160.56
2023-02-19T01:18:59.506Z,97159.75
2023-02-19T01:21:07.751Z,97160.56
2023-02-19T01:23:13.377Z,97155.53
2023-02-19T01:25:18.322Z,97160.66
2023-02-19T01:27:22.990Z,97153.84
2023-02-19T01:29:27.407Z,97148.06
2023-02-19T01:31:34.815Z,97149.13
2023-02-19T01:33:39.973Z,97140.84
2023-02-19T01:35:44.583Z,97140.25
2023-02-19T01:37:49.264Z,97138.91
2023-02-19T01:39:53.776Z,97133.59
2023-02-19T01:41:58.739Z,97132.78
2023-02-19T01:44:04.191Z,97132.28
2023-02-19T01:46:08.864Z,97128.03
2023-02-19T01:48:18.029Z,97128.34
2023-02-19T01:50:22.581Z,97116.16
2023-02-19T01:52:30.785Z,97130.00
2023-02-19T01:54:38.195Z,97119.97
2023-02-19T01:56:44.268Z,97118.69
2023-02-19T01:58:50.024Z,97119.78
2023-02-19T02:00:54.992Z,97118.69
2023-02-19T02:03:00.907Z,97109.16
2023-02-19T02:05:10.669Z,97109.91
2023-02-19T02:07:27.676Z,97104.31
2023-02-19T02:09:46.253Z,97098.69
2023-02-19T02:11:52.919Z,97094.19
2023-02-19T02:13:58.388Z,97091.53
2023-02-19T02:16:08.489Z,97101.88
2023-02-19T02:18:18.533Z,97098.13
2023-02-19T02:20:35.265Z,97086.41
2023-02-19T02:22:40.953Z,97089.06
2023-02-19T02:25:01.033Z,97091.44
2023-02-19T02:27:15.692Z,97088.78
2023-02-19T02:29:44.220Z,97087.47
2023-02-19T02:31:54.112Z,97088.59
2023-02-19T02:34:02.072Z,97086.72
2023-02-19T02:36:09.528Z,97081.38
2023-02-19T02:38:17.207Z,97084.53
2023-02-19T02:40:22.450Z,97076.06
2023-02-19T02:42:32.987Z,97078.25
2023-02-19T02:45:05.009Z,97076.44
2023-02-19T02:47:33.683Z,97068.78
2023-02-19T02:49:59.699Z,97065.56
2023-02-19T02:52:24.904Z,97060.50
2023-02-19T02:54:45.260Z,97064.56
2023-02-19T02:56:53.103Z,97068.00
2023-02-19T02:58:59.387Z,97060.81
2023-02-19T03:01:18.094Z,97061.09
2023-02-19T03:03:26.163Z,97048.41
2023-02-19T03:05:43.952Z,97045.75
2023-02-19T03:07:50.808Z,97051.06
2023-02-19T03:09:57.756Z,97021.94
2023-02-19T03:12:17.152Z,97006.09
2023-02-19T03:14:37.432Z,97022.13
2023-02-19T03:16:55.816Z,97031.47
2023-02-19T03:19:16.016Z,97025.38
2023-02-19T03:21:22.063Z,97025.16
2023-02-19T03:23:50.643Z,97033.13
2023-02-19T03:26:04.841Z,97023.41
2023-02-19T03:28:20.604Z,97018.69
2023-02-19T03:30:27.300Z,97025.84
2023-02-19T03:32:33.996Z,97009.41
2023-02-19T03:34:44.430Z,97008.63
2023-02-19T03:36:53.778Z,97007.84
2023-02-19T03:39:01.507Z,97002.34
2023-02-19T03:41:10.450Z,97008.53
2023-02-19T03:43:21.855Z,97011.19
2023-02-19T03:45:35.746Z,97011.19
2023-02-19T03:47:45.430Z,97009.41
2023-02-19T03:49:58.182Z,97004.47
2023-02-19T03:52:07.354Z,97008.78
2023-02-19T03:54:16.059Z,97012.22
2023-02-19T03:56:25.697Z,97006.91
2023-02-19T03:58:34.434Z,97002.41
2023-02-19T04:00:41.825Z,97010.38
2023-02-19T04:02:50.943Z,97005.84
2023-02-19T04:05:03.338Z,97018.34
2023-02-19T04:07:08.382Z,97015.16
2023-02-19T04:09:17.349Z,97020.75
2023-02-19T04:11:27.349Z,97017.41
2023-02-19T04:13:40.445Z,97012.97
2023-02-19T04:15:46.567Z,97012.78
2023-02-19T04:17:54.961Z,97013.06
2023-02-19T04:20:04.016Z,97010.72
2023-02-19T04:22:09.077Z,97008.59
2023-02-19T04:24:16.451Z,97014.22
2023-02-19T04:26:22.991Z,97010.56
2023-02-19T04:28:27.601Z,97019.88
2023-02-19T04:30:32.125Z,97007.19
2023-02-19T04:32:36.681Z,97006.13
2023-02-19T04:34:41.216Z,97011.97
2023-02-19T04:36:48.419Z,97019.44
2023-02-19T04:38:52.890Z,97026.06
2023-02-19T04:40:57.429Z,97022.09
2023-02-19T04:43:01.893Z,97016.03
2023-02-19T04:45:06.825Z,97017.09
2023-02-19T04:47:11.585Z,97015.78
2023-02-19T04:49:16.116Z,97016.59
2023-02-19T04:51:20.666Z,97018.16
2023-02-19T04:53:27.795Z,97016.31
2023-02-19T04:55:32.284Z,97034.59
2023-02-19T04:57:37.294Z,97034.06
2023-02-19T04:59:41.757Z,97032.81
2023-02-19T05:01:46.481Z,97041.31
2023-02-19T05:03:50.987Z,97029.72
2023-02-19T05:05:55.764Z,97028.91
2023-02-19T05:08:00.204Z,97035.59
2023-02-19T05:10:07.688Z,97028.19
2023-02-19T05:12:12.413Z,97033.03
2023-02-19T05:14:17.299Z,97032.78
2023-02-19T05:16:21.806Z,97029.66
2023-02-19T05:18:26.252Z,97036.25
2023-02-19T05:20:30.741Z,97038.63
2023-02-19T05:22:35.371Z,97044.13
2023-02-19T05:24:39.842Z,97041.19
2023-02-19T05:26:48.330Z,97064.84
2023-02-19T05:28:55.517Z,97040.75
2023-02-19T05:31:00.127Z,97048.69
2023-02-19T05:33:04.556Z,97041.84
2023-02-19T05:35:09.445Z,97050.38
2023-02-19T05:37:13.912Z,97045.34
2023-02-19T05:39:18.533Z,97047.19
2023-02-19T05:41:23.870Z,97042.72
2023-02-19T05:43:30.928Z,97043.00
2023-02-19T05:45:35.895Z,97040.59
2023-02-19T05:47:40.362Z,97053.38
2023-02-19T05:49:44.851Z,97061.63
2023-02-19T05:51:49.480Z,97055.53
2023-02-19T05:53:54.184Z,97057.66
2023-02-19T05:55:58.986Z,97073.06
2023-02-19T05:58:03.676Z,97065.69
2023-02-19T06:00:12.122Z,97065.47
2023-02-19T06:02:19.199Z,97081.44
2023-02-19T06:04:24.157Z,97063.75
2023-02-19T06:06:29.569Z,97069.81
2023-02-19T06:08:34.153Z,97070.59
2023-02-19T06:10:40.250Z,97077.00
2023-02-19T06:12:44.757Z,97072.47
2023-02-19T06:14:49.554Z,97086.00
2023-02-19T06:16:57.000Z,97069.59
2023-02-19T06:19:01.432Z,97079.19
2023-02-19T06:21:06.136Z,97081.84
2023-02-19T06:23:10.616Z,97084.78
2023-02-19T06:25:15.174Z,97086.34
2023-02-19T06:27:19.690Z,97081.28
2023-02-19T06:29:24.212Z,97092.94
2023-02-19T06:31:28.773Z,97096.66
2023-02-19T06:33:36.470Z,97092.94
2023-02-19T06:35:40.910Z,97087.94
2023-02-19T06:37:45.459Z,97104.63
2023-02-19T06:39:51.112Z,97104.63
2023-02-19T06:41:58.002Z,97103.34
2023-02-19T06:44:02.834Z,97106.28
2023-02-19T06:46:08.006Z,97113.66
2023-02-19T06:48:12.421Z,97110.19
2023-02-19T06:50:19.778Z,97116.81
2023-02-19T06:52:24.318Z,97113.66
2023-02-19T06:54:28.808Z,97130.06
2023-02-19T06:56:34.132Z,97122.59
2023-02-19T06:58:38.563Z,97137.97
2023-02-19T07:00:43.064Z,97115.66
2023-02-19T07:02:47.575Z,97126.56
2023-02-19T07:04:52.044Z,97135.59
2023-02-19T07:07:00.345Z,97151.72
2023-02-19T07:09:05.342Z,97151.44
2023-02-19T07:11:10.428Z,97156.69
2023-02-19T07:13:15.418Z,97157.97
2023-02-19T07:15:20.358Z,97165.91
2023-02-19T07:17:24.806Z,97170.66
2023-02-19T07:19:29.533Z,97173.84
2023-02-19T07:21:37.794Z,97178.56
2023-02-19T07:23:45.650Z,97179.06
2023-02-19T07:25:50.204Z,97185.47
2023-02-19T07:27:54.635Z,97176.41
2023-02-19T07:29:59.327Z,97181.44
2023-02-19T07:32:04.287Z,97183.59
2023-02-19T07:34:09.722Z,97194.69
2023-02-19T07:36:14.640Z,97186.44
2023-02-19T07:38:19.647Z,97201.28
2023-02-19T07:40:26.843Z,97199.94
2023-02-19T07:42:31.687Z,97201.53
2023-02-19T07:44:36.175Z,97217.16
2023-02-19T07:46:40.790Z,97207.34
2023-02-19T07:48:45.983Z,97214.22
2023-02-19T07:50:53.684Z,97217.66
2023-02-19T07:52:58.207Z,97215.00
2023-02-19T07:55:02.694Z,97216.59
2023-02-19T07:57:10.204Z,97224.56
2023-02-19T07:59:15.959Z,97229.06
2023-02-19T08:01:41.536Z,97227.50
2023-02-19T08:03:43.889Z,97230.44
2023-02-19T08:05:49.988Z,97237.56
2023-02-19T08:07:54.604Z,97232.56
2023-02-19T08:10:22.081Z,97232.84
2023-02-19T08:12:41.680Z,97227.25
2023-02-19T08:14:46.252Z,97235.72
2023-02-19T08:16:51.560Z,97225.91
2023-02-19T08:18:56.462Z,97231.22
2023-02-19T08:21:01.764Z,97242.59
2023-02-19T08:23:06.377Z,97231.97
2023-02-19T08:25:11.413Z,97246.06
2023-02-19T08:27:15.926Z,97245.25
2023-02-19T08:29:23.183Z,97239.66
2023-02-19T08:31:27.955Z,97244.19
2023-02-19T08:33:33.282Z,97261.16
2023-02-19T08:35:38.300Z,97251.13
2023-02-19T08:37:42.995Z,97242.09
2023-02-19T08:39:47.752Z,97250.06
2023-02-19T08:41:52.219Z,97260.38
2023-02-19T08:43:56.714Z,97254.28
2023-02-19T08:46:04.150Z,97253.28
2023-02-19T08:48:09.056Z,97254.34
2023-02-19T08:50:14.214Z,97256.41
2023-02-19T08:52:18.686Z,97258.22
2023-02-19T08:54:23.084Z,97267.22
2023-02-19T08:56:27.582Z,97261.34
2023-02-19T08:58:32.981Z,97260.50
2023-02-19T09:00:37.597Z,97251.47
2023-02-19T09:02:44.714Z,97266.31
2023-02-19T09:04:49.220Z,97276.94
2023-02-19T09:06:53.878Z,97265.75
2023-02-19T09:08:58.418Z,97268.63
2023-02-19T09:11:03.574Z,97270.72
2023-02-19T09:13:08.281Z,97276.81
2023-02-19T09:15:13.019Z,97276.53
2023-02-19T09:17:17.552Z,97274.94
2023-02-19T09:19:25.201Z,97282.13
2023-02-19T09:21:29.847Z,97267.25
2023-02-19T09:23:35.652Z,97267.25
2023-02-19T09:25:40.204Z,97268.84
2023-02-19T09:27:44.666Z,97272.00
2023-02-19T09:29:49.168Z,97273.03
2023-02-19T09:31:53.760Z,97276.69
2023-02-19T09:33:58.331Z,97280.84
2023-02-19T09:36:06.464Z,97280.84
2023-02-19T09:38:11.040Z,97287.91
2023-02-19T09:40:21.428Z,97283.69
2023-02-19T09:42:27.356Z,97287.06
2023-02-19T09:44:32.576Z,97287.63
2023-02-19T09:46:40.982Z,97289.06
2023-02-19T09:48:45.700Z,97300.25
2023-02-19T09:50:51.671Z,97285.56
2023-02-19T09:53:01.533Z,97297.53
2023-02-19T09:55:08.128Z,97283.25
2023-02-19T09:57:16.856Z,97284.75
2023-02-19T09:59:23.631Z,97289.22
2023-02-19T10:01:29.845Z,97291.75
2023-02-19T10:03:35.867Z,97301.81
2023-02-19T10:05:41.705Z,97298.25
2023-02-19T10:07:47.287Z,97305.16
2023-02-19T10:09:56.200Z,97306.66
2023-02-19T10:12:01.786Z,97315.63
2023-02-19T10:14:09.507Z,97308.94
2023-02-19T10:16:17.675Z,97330.22
2023-02-19T10:18:23.247Z,97319.09
2023-02-19T10:20:29.420Z,97330.31
2023-02-19T10:22:35.096Z,97332.78
2023-02-19T10:24:39.630Z,97344.31
2023-02-19T10:26:47.048Z,97337.22
2023-02-19T10:28:51.728Z,97337.50
2023-02-19T10:30:57.233Z,97344.19
2023-02-19T10:33:02.924Z,97328.53
2023-02-19T10:35:11.913Z,97347.75
2023-02-19T10:37:18.497Z,97356.28
2023-02-19T10:39:36.833Z,97345.44
2023-02-19T10:41:44.401Z,97355.91
2023-02-19T10:43:55.123Z,97367.09
2023-02-19T10:46:00.673Z,97362.34
2023-02-19T10:48:05.740Z,97340.88
2023-02-19T10:50:21.278Z,97358.22
2023-02-19T10:52:27.530Z,97346.56
2023-02-19T10:54:32.928Z,97350.88
2023-02-19T10:56:38.788Z,97354.13
2023-02-19T10:58:44.961Z,97343.78
2023-02-19T11:01:12.197Z,97347.25
2023-02-19T11:03:21.224Z,97351.28
2023-02-19T11:05:26.029Z,97348.38
2023-02-19T11:07:30.867Z,97345.25
2023-02-19T11:09:39.259Z,97346.59
2023-02-19T11:11:43.926Z,97361.00
2023-02-19T11:13:48.381Z,97355.16
2023-02-19T11:15:57.994Z,97354.34
2023-02-19T11:18:05.262Z,97349.63
2023-02-19T11:20:13.258Z,97363.69
2023-02-19T11:22:22.212Z,97353.34
2023-02-19T11:24:34.061Z,97379.16
2023-02-19T11:26:38.817Z,97368.81
2023-02-19T11:28:43.345Z,97362.38
2023-02-19T11:30:48.389Z,97365.03
2023-02-19T11:32:55.465Z,97362.91
2023-02-19T11:35:15.034Z,97360.72
2023-02-19T11:37:20.964Z,97365.28
2023-02-19T11:39:30.667Z,97355.16
2023-02-19T11:41:54.351Z,97366.56
2023-02-19T11:44:09.056Z,97363.66
2023-02-19T11:46:19.203Z,97360.69
2023-02-19T11:48:53.906Z,97355.88
2023-02-19T11:51:06.620Z,97355.88
2023-02-19T11:53:18.059Z,97355.38
2023-02-19T11:55:28.224Z,97364.13
2023-02-19T11:57:41.564Z,97355.09
2023-02-19T11:59:50.885Z,97362.19
2023-02-19T12:02:08.153Z,97348.31
2023-02-19T12:04:31.330Z,97354.41
2023-02-19T12:06:44.239Z,97355.00
2023-02-19T12:09:05.953Z,97349.47
2023-02-19T12:11:28.405Z,97340.22
2023-02-19T12:13:39.846Z,97354.28
2023-02-19T12:15:52.169Z,97346.53
2023-02-19T12:18:12.423Z,97339.34
2023-02-19T12:20:22.208Z,97340.41
2023-02-19T12:22:33.774Z,97341.22
2023-02-19T12:24:49.370Z,97344.38
2023-02-19T12:27:02.118Z,97342.50
2023-02-19T12:29:15.688Z,97355.53
2023-02-19T12:31:35.918Z,97353.06
2023-02-19T12:33:49.843Z,97357.59
2023-02-19T12:36:00.243Z,97358.38
2023-02-19T12:38:12.524Z,97360.75
2023-02-19T12:40:26.197Z,97358.09
2023-02-19T12:42:39.951Z,97352.56
2023-02-19T12:44:46.452Z,97368.81
2023-02-19T12:46:52.204Z,97365.88
2023-02-19T12:49:00.548Z,97372.75
2023-02-19T12:51:08.181Z,97377.00
2023-02-19T12:53:27.835Z,97386.03
2023-02-19T12:55:34.353Z,97389.78
2023-02-19T12:57:41.041Z,97382.88
2023-02-19T12:59:49.493Z,97385.84
2023-02-19T13:01:59.558Z,97388.50
2023-02-19T13:04:12.991Z,97388.50
2023-02-19T13:06:24.260Z,97382.88
2023-02-19T13:08:36.468Z,97368.53
2023-02-19T13:10:43.846Z,97385.06
2023-02-19T13:12:49.730Z,97369.38
2023-02-19T13:14:57.737Z,97364.03
2023-02-19T13:17:04.228Z,97366.94
2023-02-19T13:19:09.088Z,97357.06
2023-02-19T13:21:35.370Z,97352.28
2023-02-19T13:23:57.040Z,97360.44
2023-02-19T13:26:09.349Z,97355.66
2023-02-19T13:28:21.070Z,97355.06
2023-02-19T13:30:33.087Z,97354.47
2023-02-19T13:32:47.983Z,97345.63
2023-02-19T13:35:02.452Z,97361.78
2023-02-19T13:37:07.172Z,97352.13
2023-02-19T13:39:17.930Z,97352.66
2023-02-19T13:41:24.423Z,97359.75
2023-02-19T13:43:29.832Z,97361.34
2023-02-19T13:45:37.009Z,97369.03
2023-02-19T13:47:51.891Z,97368.72
2023-02-19T13:50:08.371Z,97365.25
2023-02-19T13:52:28.600Z,97351.47
2023-02-19T13:54:40.349Z,97359.47
2023-02-19T13:56:44.916Z,97362.59
2023-02-19T13:58:58.221Z,97361.22
2023-02-19T14:01:03.881Z,97370.50
2023-02-19T14:03:23.240Z,97365.69
2023-02-19T14:05:42.449Z,97364.91
2023-02-19T14:08:06.053Z,97368.44
2023-02-19T14:10:15.163Z,97386.84
2023-02-19T14:12:23.260Z,97396.47
2023-02-19T14:14:28.942Z,97379.53
2023-02-19T14:16:35.111Z,97378.25
2023-02-19T14:18:46.148Z,97374.00
2023-02-19T14:20:50.833Z,97380.69
2023-02-19T14:23:03.783Z,97386.31
2023-02-19T14:25:12.338Z,97385.53
2023-02-19T14:27:19.498Z,97380.97
2023-02-19T14:29:24.044Z,97382.06
2023-02-19T14:31:30.716Z,97384.22
2023-02-19T14:33:36.340Z,97373.59
2023-02-19T14:35:42.116Z,97372.81
2023-02-19T14:37:48.225Z,97385.31
2023-02-19T14:39:54.661Z,97384.50
2023-02-19T14:42:00.682Z,97388.25
2023-02-19T14:44:09.641Z,97383.22
2023-02-19T14:46:19.305Z,97398.41
2023-02-19T14:48:25.338Z,97406.66
2023-02-19T14:50:32.697Z,97397.38
2023-02-19T14:52:40.344Z,97406.72
2023-02-19T14:54:46.305Z,97409.97
2023-02-19T14:56:52.882Z,97411.34
2023-02-19T14:59:23.797Z,97399.72
2023-02-19T15:01:28.751Z,97397.94
2023-02-19T15:03:34.633Z,97402.44
2023-02-19T15:05:39.755Z,97416.03
2023-02-19T15:07:44.731Z,97412.56
2023-02-19T15:09:51.118Z,97413.91
2023-02-19T15:11:57.117Z,97414.19
2023-02-19T15:14:03.510Z,97417.16
2023-02-19T15:16:10.777Z,97428.84
2023-02-19T15:18:20.443Z,97426.75
2023-02-19T15:20:27.015Z,97423.91
2023-02-19T15:22:34.291Z,97435.13
2023-02-19T15:24:38.827Z,97439.41
2023-02-19T15:26:44.920Z,97441.25
2023-02-19T15:28:49.592Z,97454.84
2023-02-19T15:30:54.586Z,97457.28
2023-02-19T15:33:02.328Z,97456.47
2023-02-19T15:35:07.463Z,97450.97
2023-02-19T15:37:15.422Z,97456.28
2023-02-19T15:39:22.918Z,97459.72
2023-02-19T15:41:29.234Z,97465.59
2023-02-19T15:43:36.834Z,97463.00
2023-02-19T15:45:43.830Z,97460.94
2023-02-19T15:47:51.920Z,97459.63
2023-02-19T15:50:03.314Z,97460.19
2023-02-19T15:52:11.173Z,97452.50
2023-02-19T15:54:19.625Z,97457.81
2023-02-19T15:56:28.443Z,97444.00
2023-02-19T15:58:34.670Z,97443.22
2023-02-19T16:00:42.199Z,97454.44
2023-02-19T16:02:46.719Z,97456.28
2023-02-19T16:04:51.174Z,97456.28
2023-02-19T16:06:59.911Z,97445.66
2023-02-19T16:09:05.807Z,97463.47
2023-02-19T16:11:28.620Z,97458.44
2023-02-19T16:13:34.294Z,97462.44
2023-02-19T16:15:38.904Z,97465.91
2023-02-19T16:17:45.679Z,97464.31
2023-02-19T16:19:53.189Z,97463.00
2023-02-19T16:22:01.023Z,97462.22
2023-02-19T16:24:08.418Z,97465.16
2023-02-19T16:26:13.024Z,97475.78
2023-02-19T16:28:23.032Z,97465.94
2023-02-19T16:30:31.103Z,97473.63
2023-02-19T16:32:35.502Z,97468.59
2023-02-19T16:34:43.580Z,97476.06
2023-02-19T16:36:49.356Z,97485.88
2023-02-19T16:39:06.968Z,97482.44
2023-02-19T16:41:16.495Z,97488.81
2023-02-19T16:43:29.238Z,97494.44
2023-02-19T16:45:33.684Z,97487.56
2023-02-19T16:47:41.711Z,97494.22
2023-02-19T16:49:46.612Z,97496.63
2023-02-19T16:51:51.043Z,97490.03
2023-02-19T16:53:55.481Z,97499.06
2023-02-19T16:56:02.558Z,97499.06
2023-02-19T16:58:06.937Z,97502.78
2023-02-19T17:00:12.218Z,97505.72
2023-02-19T17:02:19.617Z,97512.09
2023-02-19T17:04:24.219Z,97524.31
2023-02-19T17:06:28.823Z,97522.72
2023-02-19T17:08:37.123Z,97513.19
2023-02-19T17:10:41.536Z,97533.59
2023-02-19T17:12:48.728Z,97543.44
2023-02-19T17:14:53.165Z,97537.06
2023-02-19T17:16:57.599Z,97541.28
2023-02-19T17:19:01.995Z,97540.50
2023-02-19T17:21:13.128Z,97535.19
2023-02-19T17:23:17.926Z,97540.50
2023-02-19T17:25:22.412Z,97549.25
2023-02-19T17:27:26.835Z,97553.78
2023-02-19T17:29:37.201Z,97557.50
2023-02-19T17:31:42.044Z,97549.81
2023-02-19T17:33:46.870Z,97557.00
2023-02-19T17:35:51.268Z,97563.38
2023-02-19T17:37:55.950Z,97570.56
2023-02-19T17:40:00.511Z,97575.88
2023-02-19T17:42:06.149Z,97576.66
2023-02-19T17:44:10.543Z,97578.53
2023-02-19T17:46:19.624Z,97581.19
2023-02-19T17:48:24.019Z,97590.22
2023-02-19T17:50:29.779Z,97594.72
2023-02-19T17:52:34.202Z,97604.53
2023-02-19T17:54:38.776Z,97614.66
2023-02-19T17:56:46.093Z,97604.03
2023-02-19T17:58:50.547Z,97606.69
2023-02-19T18:00:55.038Z,97604.81
2023-02-19T18:03:02.104Z,97618.91
2023-02-19T18:05:06.771Z,97634.03
2023-02-19T18:07:11.248Z,97630.59
2023-02-19T18:09:18.151Z,97629.00
2023-02-19T18:11:23.047Z,97637.78
2023-02-19T18:13:27.502Z,97635.13
2023-02-19T18:15:32.183Z,97649.44
2023-02-19T18:17:36.872Z,97650.22
2023-02-19T18:19:45.554Z,97653.97
2023-02-19T18:21:49.940Z,97640.16
2023-02-19T18:23:54.428Z,97655.31
2023-02-19T18:25:58.811Z,97652.94
2023-02-19T18:28:03.465Z,97657.44
2023-02-19T18:30:09.077Z,97650.03
2023-02-19T18:32:13.574Z,97661.47
2023-02-19T18:34:19.386Z,97653.75
2023-02-19T18:36:26.540Z,97662.00
2023-02-19T18:38:31.165Z,97672.09
2023-02-19T18:40:35.784Z,97676.63
2023-02-19T18:42:40.411Z,97672.59
2023-02-19T18:44:45.336Z,97674.75
2023-02-19T18:46:49.846Z,97670.50
2023-02-19T18:48:54.313Z,97671.56
2023-02-19T18:50:58.699Z,97673.44
2023-02-19T18:53:05.916Z,97664.41
2023-02-19T18:55:11.018Z,97672.38
2023-02-19T18:57:15.524Z,97680.63
2023-02-19T18:59:20.367Z,97680.88
2023-02-19T19:01:25.287Z,97679.28
2023-02-19T19:03:32.532Z,97678.75
2023-02-19T19:05:37.189Z,97681.41
2023-02-19T19:07:41.638Z,97688.88
2023-02-19T19:09:48.940Z,97681.19
2023-02-19T19:11:53.350Z,97691.25
2023-02-19T19:13:57.951Z,97688.09
2023-02-19T19:16:02.354Z,97696.31
2023-02-19T19:18:07.618Z,97691.03
2023-02-19T19:20:13.087Z,97686.78
2023-02-19T19:22:22.774Z,97683.59
2023-02-19T19:24:27.413Z,97686.81
2023-02-19T19:26:34.574Z,97685.22
2023-02-19T19:28:40.668Z,97688.91
2023-02-19T19:30:45.172Z,97683.88
2023-02-19T19:32:52.089Z,97686.03
2023-02-19T19:34:57.787Z,97684.44
2023-02-19T19:37:02.170Z,97676.75
2023-02-19T19:39:06.755Z,97681.28
2023-02-19T19:41:11.341Z,97684.19
2023-02-19T19:43:18.616Z,97679.16
2023-02-19T19:45:23.542Z,97691.63
2023-02-19T19:47:28.028Z,97687.41
2023-02-19T19:49:33.521Z,97681.56
2023-02-19T19:51:38.545Z,97690.56
2023-02-19T19:53:43.041Z,97684.47
2023-02-19T19:55:47.554Z,97685.25
2023-02-19T19:57:53.939Z,97687.13
2023-02-19T20:00:01.323Z,97688.19
2023-02-19T20:02:06.018Z,97693.50
2023-02-19T20:04:10.537Z,97690.31
2023-02-19T20:06:14.914Z,97692.19
2023-02-19T20:08:20.221Z,97691.38
2023-02-19T20:10:25.041Z,97692.97
2023-02-19T20:12:29.778Z,97692.97
2023-02-19T20:14:34.261Z,97685.03
2023-02-19T20:16:43.231Z,97696.41
2023-02-19T20:18:49.025Z,97695.91
2023-02-19T20:20:53.759Z,97695.41
2023-02-19T20:22:58.369Z,97702.53
2023-02-19T20:25:03.028Z,97707.06
2023-02-19T20:27:07.469Z,97697.50
2023-02-19T20:29:12.146Z,97702.81
2023-02-19T20:31:16.622Z,97704.94
2023-02-19T20:33:23.834Z,97709.72
2023-02-19T20:35:29.878Z,97706.81
2023-02-19T20:37:34.742Z,97706.81
2023-02-19T20:39:39.568Z,97702.84
2023-02-19T20:41:47.751Z,97704.44
2023-02-19T20:43:52.275Z,97703.63
2023-02-19T20:45:56.743Z,97710.53
2023-02-19T20:48:01.278Z,97707.34
2023-02-19T20:50:08.954Z,97706.81
2023-02-19T20:52:13.371Z,97705.53
2023-02-19T20:54:19.113Z,97715.84
2023-02-19T20:56:23.492Z,97718.00
2023-02-19T20:58:28.084Z,97714.78
2023-02-19T21:00:32.681Z,97720.63
2023-02-19T21:02:37.241Z,97717.47
2023-02-19T21:04:41.767Z,97715.09
2023-02-19T21:06:50.608Z,97714.81
2023-02-19T21:08:55.050Z,97719.59
2023-02-19T21:10:59.674Z,97721.72
2023-02-19T21:13:04.115Z,97726.75
2023-02-19T21:15:08.934Z,97731.00
2023-02-19T21:17:13.376Z,97717.50
2023-02-19T21:19:17.899Z,97715.63
2023-02-19T21:21:25.288Z,97711.91
2023-02-19T21:23:32.464Z,97715.63
2023-02-19T21:25:36.986Z,97718.28
2023-02-19T21:27:41.686Z,97725.16
2023-02-19T21:29:46.069Z,97724.63
2023-02-19T21:31:51.417Z,97713.75
2023-02-19T21:33:55.880Z,97722.22
2023-02-19T21:36:00.877Z,97718.00
2023-02-19T21:38:05.338Z,97710.84
2023-02-19T21:40:13.675Z,97718.53
2023-02-19T21:42:18.285Z,97715.09
2023-02-19T21:44:23.419Z,97712.44
2023-02-19T21:46:28.095Z,97710.31
2023-02-19T21:48:32.620Z,97714.00
2023-02-19T21:50:37.048Z,97713.22
2023-02-19T21:52:41.459Z,97707.13
2023-02-19T21:54:45.985Z,97708.97
2023-02-19T21:56:53.366Z,97707.91
2023-02-19T21:58:57.958Z,97706.88
2023-02-19T22:01:02.454Z,97712.69
2023-02-19T22:03:06.927Z,97707.66
2023-02-19T22:05:11.953Z,97700.25
2023-02-19T22:07:16.361Z,97711.63
2023-02-19T22:09:20.856Z,97720.63
2023-02-19T22:11:25.517Z,97718.25
2023-02-19T22:13:32.739Z,97718.00
2023-02-19T22:15:37.176Z,97713.25
2023-02-19T22:17:41.752Z,97718.28
2023-02-19T22:19:46.169Z,97715.38
2023-02-19T22:21:50.677Z,97725.69
2023-02-19T22:23:55.770Z,97718.81
2023-02-19T22:26:00.479Z,97724.38
2023-02-19T22:28:07.683Z,97725.44
2023-02-19T22:30:15.185Z,97727.81
2023-02-19T22:32:19.812Z,97732.59
2023-02-19T22:34:24.586Z,97741.34
2023-02-19T22:36:31.150Z,97735.50
2023-02-19T22:38:35.904Z,97736.56
2023-02-19T22:40:40.341Z,97740.28
2023-02-19T22:42:44.786Z,97740.56
2023-02-19T22:44:49.230Z,97733.13
2023-02-19T22:46:57.390Z,97737.63
2023-02-19T22:49:04.704Z,97736.28
2023-02-19T22:51:13.180Z,97744.50
2023-02-19T22:53:17.858Z,97743.16
2023-02-19T22:55:22.432Z,97743.41
2023-02-19T22:57:28.299Z,97748.19
2023-02-19T22:59:33.144Z,97743.94
2023-02-19T23:01:37.547Z,97750.84
2023-02-19T23:03:50.944Z,97748.47
2023-02-19T23:05:55.668Z,97748.44
2023-02-19T23:08:00.255Z,97752.16
2023-02-19T23:10:04.667Z,97757.97
2023-02-19T23:12:11.245Z,97760.09
2023-02-19T23:14:16.400Z,97763.53
2023-02-19T23:16:21.070Z,97774.94
2023-02-19T23:18:25.579Z,97775.47
2023-02-19T23:20:33.054Z,97772.28
2023-02-19T23:22:37.477Z,97772.56
2023-02-19T23:24:41.948Z,97763.00
2023-02-19T23:26:46.727Z,97766.22
2023-02-19T23:28:51.241Z,97764.09
2023-02-19T23:30:55.922Z,97766.47
2023-02-19T23:33:00.746Z,97768.06
2023-02-19T23:35:05.456Z,97765.16
2023-02-19T23:37:12.646Z,97775.47
2023-02-19T23:39:18.246Z,97776.28
2023-02-19T23:41:22.861Z,97777.59
2023-02-19T23:43:27.418Z,97760.66
2023-02-19T23:45:32.424Z,97757.22
2023-02-19T23:47:36.845Z,97763.03
2023-02-19T23:49:41.316Z,97756.97
2023-02-19T23:51:45.718Z,97759.59
2023-02-19T23:53:53.038Z,97765.97
2023-02-19T23:55:57.542Z,97765.97
2023-02-19T23:58:02.342Z,97766.75
